Terminal Aerodrome Forecast
Issued by NWS

Home | Current Version | Previous Version | Text Only | Print | Product List | Glossary On
Versions: 1 2 3 4 5 6 7 8 9 10 11 12 13 14 15 16 17 18 19 20 21 22 23 24 25 26 27 28 29 30 31
000
FTUS45 KGJT 040103 AAA
TAFDRO
TAF AMD
KDRO 040103Z 0401/0424 24007KT P6SM FEW080 SCT120
     FM040300 33005KT P6SM SCT150
     FM040600 02003KT P6SM FEW100 BKN150
     FM041600 08004KT P6SM SCT080 BKN120
     FM042000 16007KT P6SM VCTS SCT060CB BKN100=

USA.gov is the U.S. government's official web portal to all federal, state and local government web resources and services.